createdAt,value
2024-02-20T00:02:22.334Z,5.27
2024-02-20T00:05:24.108Z,4.50
2024-02-20T00:08:26.079Z,5.27
2024-02-20T00:11:27.965Z,5.10
2024-02-20T00:14:29.769Z,5.07
2024-02-20T00:17:31.890Z,5.43
2024-02-20T00:20:33.981Z,5.13
2024-02-20T00:23:37.331Z,5.53
2024-02-20T00:26:39.618Z,4.80
2024-02-20T00:29:41.394Z,4.90
2024-02-20T00:32:43.429Z,5.60
2024-02-20T00:35:45.276Z,5.30
2024-02-20T00:38:47.126Z,5.00
2024-02-20T00:41:49.059Z,5.30
2024-02-20T00:44:50.913Z,5.53
2024-02-20T00:47:52.775Z,5.40
2024-02-20T00:50:54.659Z,5.10
2024-02-20T00:53:56.987Z,5.70
2024-02-20T00:56:58.755Z,5.40
2024-02-20T01:00:00.666Z,5.37
2024-02-20T01:03:03.375Z,5.87
2024-02-20T01:06:08.056Z,5.13
2024-02-20T01:09:10.230Z,5.83
2024-02-20T01:12:12.493Z,5.60
2024-02-20T01:15:14.372Z,5.73
2024-02-20T01:18:16.242Z,5.90
2024-02-20T01:21:18.254Z,5.77
2024-02-20T01:24:20.639Z,5.63
2024-02-20T01:27:22.459Z,5.40
2024-02-20T01:30:24.249Z,6.10
2024-02-20T01:33:26.150Z,6.00
2024-02-20T01:36:28.021Z,5.60
2024-02-20T01:39:29.778Z,5.77
2024-02-20T01:42:31.696Z,5.80
2024-02-20T01:45:33.982Z,6.07
2024-02-20T01:48:36.502Z,6.13
2024-02-20T01:51:39.578Z,5.60
2024-02-20T01:54:41.935Z,6.73
2024-02-20T01:57:44.289Z,6.27
2024-02-20T02:00:46.394Z,6.60
2024-02-20T02:03:48.292Z,6.27
2024-02-20T02:06:50.270Z,6.87
2024-02-20T02:09:52.297Z,6.30
2024-02-20T02:12:54.976Z,5.93
2024-02-20T02:15:57.190Z,6.27
2024-02-20T02:18:59.105Z,5.73
2024-02-20T02:22:01.750Z,6.20
2024-02-20T02:25:04.936Z,5.70
2024-02-20T02:28:08.200Z,5.67
2024-02-20T02:31:10.101Z,6.60
2024-02-20T02:34:12.794Z,6.60
2024-02-20T02:37:14.763Z,6.47
2024-02-20T02:40:16.709Z,5.77
2024-02-20T02:43:18.572Z,6.23
2024-02-20T02:46:20.418Z,5.87
2024-02-20T02:49:22.346Z,5.80
2024-02-20T02:52:24.162Z,6.20
2024-02-20T02:55:26.661Z,6.27
2024-02-20T02:58:28.544Z,6.10
2024-02-20T03:01:30.440Z,6.07
2024-02-20T03:04:36.094Z,6.10
2024-02-20T03:07:38.429Z,6.20
2024-02-20T03:10:40.545Z,5.80
2024-02-20T03:13:42.432Z,5.47
2024-02-20T03:16:44.610Z,5.80
2024-02-20T03:19:46.475Z,6.07
2024-02-20T03:22:48.456Z,5.67
2024-02-20T03:25:50.237Z,6.60
2024-02-20T03:28:52.984Z,6.60
2024-02-20T03:31:55.177Z,6.40
2024-02-20T03:34:56.958Z,6.80
2024-02-20T03:37:59.300Z,5.97
2024-02-20T03:41:01.095Z,5.43
2024-02-20T03:44:02.912Z,5.73
2024-02-20T03:47:05.083Z,5.23
2024-02-20T03:50:07.652Z,5.17
2024-02-20T03:53:09.527Z,5.83
2024-02-20T03:56:14.425Z,5.20
2024-02-20T03:59:16.245Z,5.13
2024-02-20T04:02:18.020Z,4.33
2024-02-20T04:05:21.359Z,4.30
2024-02-20T04:08:23.259Z,3.60
2024-02-20T04:11:25.109Z,3.50
2024-02-20T04:14:27.110Z,2.80
2024-02-20T04:17:28.956Z,3.30
2024-02-20T04:20:30.740Z,3.20
2024-02-20T04:23:35.271Z,3.50
2024-02-20T04:26:37.569Z,2.93
2024-02-20T04:29:40.122Z,2.97
2024-02-20T04:32:42.443Z,2.90
2024-02-20T04:35:44.310Z,3.30
2024-02-20T04:38:46.103Z,3.10
2024-02-20T04:41:47.971Z,3.67
2024-02-20T04:44:51.156Z,3.07
2024-02-20T04:47:55.419Z,2.77
2024-02-20T04:50:57.261Z,2.90
2024-02-20T04:53:59.058Z,2.40
2024-02-20T04:57:00.967Z,2.27
2024-02-20T05:00:03.393Z,2.33
2024-02-20T05:03:06.391Z,1.83
2024-02-20T05:06:08.118Z,1.77
2024-02-20T05:09:11.230Z,1.60
2024-02-20T05:12:13.077Z,1.57
2024-02-20T05:15:14.982Z,1.70
2024-02-20T05:18:16.837Z,1.90
2024-02-20T05:21:18.801Z,2.10
2024-02-20T05:24:20.567Z,1.70
2024-02-20T05:27:22.409Z,2.10
2024-02-20T05:30:25.717Z,2.00
2024-02-20T05:33:28.968Z,2.10
2024-02-20T05:36:32.638Z,1.70
2024-02-20T05:39:35.477Z,1.77
2024-02-20T05:42:38.149Z,1.80
2024-02-20T05:45:39.907Z,1.70
2024-02-20T05:48:42.324Z,2.07
2024-02-20T05:51:44.880Z,2.10
2024-02-20T05:54:47.948Z,2.30
2024-02-20T05:57:50.175Z,2.07
2024-02-20T06:00:52.215Z,2.50
2024-02-20T06:03:54.208Z,2.30
2024-02-20T06:06:56.202Z,2.90
2024-02-20T06:09:58.302Z,2.63
2024-02-20T06:13:02.092Z,2.37
2024-02-20T06:16:04.894Z,2.30
2024-02-20T06:19:06.798Z,2.50
2024-02-20T06:22:09.550Z,2.27
2024-02-20T06:25:11.657Z,2.27
2024-02-20T06:28:15.763Z,2.03
2024-02-20T06:31:18.284Z,1.43
2024-02-20T06:34:20.321Z,1.20
2024-02-20T06:37:22.317Z,1.37
2024-02-20T06:40:24.331Z,1.10
2024-02-20T06:43:26.400Z,1.20
2024-02-20T06:46:28.266Z,1.40
2024-02-20T06:49:30.490Z,1.17
2024-02-20T06:52:34.715Z,1.30
2024-02-20T06:55:36.883Z,1.20
2024-02-20T06:58:38.689Z,1.20
2024-02-20T07:01:41.741Z,2.07
2024-02-20T07:04:43.739Z,1.30
2024-02-20T07:07:46.637Z,1.40
2024-02-20T07:10:49.170Z,1.30
2024-02-20T07:13:51.292Z,1.53
2024-02-20T07:16:53.094Z,1.60
2024-02-20T07:19:56.905Z,1.70
2024-02-20T07:22:58.735Z,1.77
2024-02-20T07:26:00.519Z,1.60
2024-02-20T07:29:02.358Z,1.53
2024-02-20T07:32:04.428Z,1.30
2024-02-20T07:35:06.521Z,1.40
2024-02-20T07:38:08.380Z,1.50
2024-02-20T07:41:11.296Z,1.50
2024-02-20T07:44:13.164Z,1.60
2024-02-20T07:47:15.947Z,1.63
2024-02-20T07:50:18.907Z,1.43
2024-02-20T07:53:21.739Z,1.20
2024-02-20T07:56:24.926Z,1.27
2024-02-20T07:59:26.775Z,1.60
2024-02-20T08:02:28.571Z,1.40
2024-02-20T08:05:30.474Z,1.30
2024-02-20T08:08:32.500Z,2.03
2024-02-20T08:11:35.481Z,1.90
2024-02-20T08:14:38.076Z,1.23
2024-02-20T08:17:41.324Z,1.30
2024-02-20T08:20:43.752Z,1.67
2024-02-20T08:23:45.571Z,1.40
2024-02-20T08:26:47.362Z,1.53
2024-02-20T08:29:50.089Z,1.20
2024-02-20T08:32:52.020Z,1.40
2024-02-20T08:35:55.118Z,1.30
2024-02-20T08:38:56.961Z,1.40
2024-02-20T08:41:58.867Z,1.60
2024-02-20T08:45:00.650Z,1.40
2024-02-20T08:48:02.731Z,1.90
2024-02-20T08:51:04.866Z,1.27
2024-02-20T08:54:06.671Z,1.60
2024-02-20T08:57:08.479Z,2.03
2024-02-20T09:00:13.570Z,1.50
2024-02-20T09:03:15.426Z,2.13
2024-02-20T09:06:17.891Z,1.83
2024-02-20T09:09:19.708Z,1.77
2024-02-20T09:12:21.572Z,1.80
2024-02-20T09:15:23.459Z,1.90
2024-02-20T09:18:26.145Z,1.60
2024-02-20T09:21:27.995Z,1.87
2024-02-20T09:24:29.815Z,2.07
2024-02-20T09:27:31.519Z,1.77
2024-02-20T09:30:33.671Z,2.10
2024-02-20T09:33:35.602Z,2.00
2024-02-20T09:36:37.425Z,1.77
2024-02-20T09:39:39.215Z,1.70
2024-02-20T09:42:45.710Z,1.50
2024-02-20T09:45:51.204Z,1.87
2024-02-20T09:48:54.333Z,1.73
2024-02-20T09:51:58.623Z,1.93
2024-02-20T09:55:02.136Z,1.70
2024-02-20T09:58:04.837Z,1.63
2024-02-20T10:01:08.856Z,2.10
2024-02-20T10:04:12.351Z,2.07
2024-02-20T10:07:15.537Z,1.83
2024-02-20T10:10:17.689Z,2.00
2024-02-20T10:13:20.641Z,1.83
2024-02-20T10:16:23.632Z,1.90
2024-02-20T10:19:25.567Z,2.20
2024-02-20T10:22:28.371Z,2.27
2024-02-20T10:25:30.187Z,2.23
2024-02-20T10:28:32.577Z,1.67
2024-02-20T10:31:34.705Z,2.30
2024-02-20T10:34:36.818Z,2.17
2024-02-20T10:37:40.183Z,1.80
2024-02-20T10:40:42.371Z,1.60
2024-02-20T10:43:47.667Z,2.13
2024-02-20T10:46:49.815Z,1.80
2024-02-20T10:49:54.988Z,1.63
2024-02-20T10:53:01.597Z,1.67
2024-02-20T10:56:05.618Z,1.77
2024-02-20T10:59:09.794Z,2.03
2024-02-20T11:02:12.045Z,2.00
2024-02-20T11:05:14.877Z,1.90
2024-02-20T11:08:17.207Z,2.00
2024-02-20T11:11:20.123Z,1.60
2024-02-20T11:14:26.882Z,2.00
2024-02-20T11:17:37.741Z,2.00
2024-02-20T11:20:41.090Z,2.50
2024-02-20T11:23:42.885Z,1.93
2024-02-20T11:26:51.608Z,2.03
2024-02-20T11:29:53.688Z,1.90
2024-02-20T11:32:57.808Z,2.23
2024-02-20T11:36:00.717Z,2.17
2024-02-20T11:39:07.695Z,2.07
2024-02-20T11:42:09.569Z,2.50
2024-02-20T11:45:32.860Z,2.60
2024-02-20T11:48:35.048Z,2.17
2024-02-20T11:51:37.094Z,1.90
2024-02-20T11:54:38.948Z,2.80
2024-02-20T11:57:45.348Z,1.97
2024-02-20T12:00:48.421Z,2.50
2024-02-20T12:03:51.494Z,1.90
2024-02-20T12:06:53.505Z,1.90
2024-02-20T12:09:55.907Z,2.50
2024-02-20T12:12:57.754Z,2.27
2024-02-20T12:16:00.052Z,2.30
2024-02-20T12:19:10.414Z,2.23
2024-02-20T12:22:19.616Z,2.60
2024-02-20T12:25:24.079Z,2.13
2024-02-20T12:28:26.174Z,2.73
2024-02-20T12:31:31.658Z,2.30
2024-02-20T12:34:41.409Z,2.60
2024-02-20T12:37:47.339Z,2.00
2024-02-20T12:40:49.272Z,2.40
2024-02-20T12:43:51.160Z,2.10
2024-02-20T12:46:53.397Z,2.30
2024-02-20T12:49:55.472Z,2.47
2024-02-20T12:52:57.334Z,2.30
2024-02-20T12:55:59.106Z,2.40
2024-02-20T12:59:00.970Z,2.30
2024-02-20T13:02:03.667Z,2.43
2024-02-20T13:05:06.581Z,3.03
2024-02-20T13:08:09.035Z,2.93
2024-02-20T13:11:11.057Z,3.10
2024-02-20T13:14:12.953Z,2.37
2024-02-20T13:17:15.876Z,2.20
2024-02-20T13:20:18.012Z,2.90
2024-02-20T13:23:19.956Z,2.70
2024-02-20T13:26:21.863Z,2.23
2024-02-20T13:29:24.389Z,2.30
2024-02-20T13:32:26.785Z,2.50
2024-02-20T13:35:28.640Z,2.67
2024-02-20T13:38:30.415Z,2.77
2024-02-20T13:41:32.303Z,3.20
2024-02-20T13:44:34.177Z,3.40
2024-02-20T13:47:36.434Z,2.63
2024-02-20T13:50:38.564Z,4.03
2024-02-20T13:53:40.370Z,3.53
2024-02-20T13:56:42.283Z,3.63
2024-02-20T13:59:44.167Z,3.87
2024-02-20T14:02:46.054Z,3.83
2024-02-20T14:05:47.908Z,3.70
2024-02-20T14:08:49.950Z,4.50
2024-02-20T14:11:51.711Z,3.70
2024-02-20T14:14:56.467Z,3.27
2024-02-20T14:17:59.436Z,3.60
2024-02-20T14:21:02.154Z,3.97
2024-02-20T14:24:04.772Z,3.90
2024-02-20T14:27:06.615Z,3.63
2024-02-20T14:30:09.121Z,4.30
2024-02-20T14:33:10.910Z,3.23
2024-02-20T14:36:13.024Z,3.40
2024-02-20T14:39:17.230Z,3.17
2024-02-20T14:42:20.763Z,3.60
2024-02-20T14:45:22.700Z,3.73
2024-02-20T14:48:25.027Z,3.60
2024-02-20T14:51:26.899Z,4.10
2024-02-20T14:54:28.903Z,3.07
2024-02-20T14:57:30.770Z,3.53
2024-02-20T15:00:32.985Z,3.63
2024-02-20T15:03:35.172Z,3.70
2024-02-20T15:06:37.137Z,3.27
2024-02-20T15:09:39.037Z,3.80
2024-02-20T15:12:41.203Z,3.50
2024-02-20T15:15:43.042Z,3.70
2024-02-20T15:18:44.804Z,3.93
2024-02-20T15:21:46.875Z,3.13
2024-02-20T15:24:48.700Z,3.53
2024-02-20T15:27:50.623Z,3.40
2024-02-20T15:30:52.415Z,3.20
2024-02-20T15:33:55.116Z,3.10
2024-02-20T15:36:57.082Z,3.00
2024-02-20T15:39:59.083Z,3.27
2024-02-20T15:43:01.042Z,3.20
2024-02-20T15:46:02.921Z,3.13
2024-02-20T15:49:05.035Z,3.40
2024-02-20T15:52:07.101Z,3.37
2024-02-20T15:55:09.329Z,3.07
2024-02-20T15:58:15.123Z,3.43
2024-02-20T16:01:17.555Z,3.63
2024-02-20T16:04:19.700Z,3.23
2024-02-20T16:07:23.163Z,4.23
2024-02-20T16:10:25.419Z,3.70
2024-02-20T16:13:27.272Z,3.33
2024-02-20T16:16:29.115Z,3.17
2024-02-20T16:19:32.134Z,3.67
2024-02-20T16:22:34.862Z,4.63
2024-02-20T16:25:38.855Z,5.30
2024-02-20T16:28:40.710Z,4.33
2024-02-20T16:31:49.328Z,4.70
2024-02-20T16:34:51.389Z,5.27
2024-02-20T16:37:53.390Z,5.00
2024-02-20T16:40:55.476Z,5.40
2024-02-20T16:43:57.265Z,4.80
2024-02-20T16:46:59.199Z,4.13
2024-02-20T16:50:01.170Z,4.50
2024-02-20T16:53:04.199Z,4.77
2024-02-20T16:56:06.587Z,3.83
2024-02-20T16:59:08.437Z,4.23
2024-02-20T17:02:10.408Z,4.00
2024-02-20T17:05:13.544Z,3.90
2024-02-20T17:08:16.653Z,4.37
2024-02-20T17:11:19.451Z,3.90
2024-02-20T17:14:21.494Z,4.40
2024-02-20T17:17:26.004Z,4.57
2024-02-20T17:20:29.552Z,3.73
2024-02-20T17:23:31.655Z,4.10
2024-02-20T17:26:37.645Z,4.53
2024-02-20T17:29:39.870Z,10.30
2024-02-20T17:32:41.856Z,16.07
2024-02-20T17:35:43.871Z,20.50
2024-02-20T17:38:45.957Z,8.93
2024-02-20T17:41:47.867Z,6.97
2024-02-20T17:44:49.671Z,5.70
2024-02-20T17:47:51.452Z,5.37
2024-02-20T17:50:53.384Z,5.67
2024-02-20T17:53:55.283Z,5.73
2024-02-20T17:56:57.028Z,6.83
2024-02-20T17:59:58.768Z,6.27
2024-02-20T18:03:00.584Z,6.20
2024-02-20T18:06:02.655Z,6.03
2024-02-20T18:09:04.913Z,5.90
2024-02-20T18:12:07.433Z,5.83
2024-02-20T18:15:10.957Z,6.77
2024-02-20T18:18:13.215Z,5.43
2024-02-20T18:21:15.322Z,5.30
2024-02-20T18:24:17.067Z,5.90
2024-02-20T18:27:18.951Z,5.70
2024-02-20T18:30:20.772Z,6.30
2024-02-20T18:33:22.621Z,6.47
2024-02-20T18:36:24.443Z,5.73
2024-02-20T18:39:27.677Z,6.27
2024-02-20T18:42:29.625Z,6.30
2024-02-20T18:45:31.717Z,6.67
2024-02-20T18:48:33.680Z,5.93
2024-02-20T18:51:35.493Z,6.23
2024-02-20T18:54:38.952Z,6.37
2024-02-20T18:57:41.796Z,5.23
2024-02-20T19:00:43.626Z,5.80
2024-02-20T19:03:45.513Z,5.80
2024-02-20T19:06:47.630Z,6.47
2024-02-20T19:09:52.480Z,6.03
2024-02-20T19:12:54.482Z,6.27
2024-02-20T19:15:56.278Z,6.30
2024-02-20T19:18:58.086Z,6.47
2024-02-20T19:22:00.868Z,6.90
2024-02-20T19:25:03.368Z,7.93
2024-02-20T19:28:06.484Z,17.17
2024-02-20T19:31:08.945Z,8.00
2024-02-20T19:34:10.796Z,7.27
2024-02-20T19:37:12.882Z,9.87
2024-02-20T19:40:15.421Z,6.67
2024-02-20T19:43:17.237Z,7.03
2024-02-20T19:46:19.942Z,6.57
2024-02-20T19:49:21.958Z,6.30
2024-02-20T19:52:24.030Z,6.13
2024-02-20T19:55:25.901Z,6.33
2024-02-20T19:58:27.846Z,5.20
2024-02-20T20:01:29.953Z,5.33
2024-02-20T20:04:33.482Z,5.10
2024-02-20T20:07:35.469Z,5.17
2024-02-20T20:10:37.683Z,4.97
2024-02-20T20:13:39.605Z,4.40
2024-02-20T20:16:41.778Z,5.27
2024-02-20T20:19:45.086Z,6.43
2024-02-20T20:22:47.038Z,6.47
2024-02-20T20:25:48.885Z,7.10
2024-02-20T20:28:51.282Z,8.20
2024-02-20T20:31:53.153Z,7.70
2024-02-20T20:34:56.178Z,6.23
2024-02-20T20:37:58.130Z,5.73
2024-02-20T20:41:00.298Z,5.40
2024-02-20T20:44:02.323Z,6.30
2024-02-20T20:47:05.061Z,5.10
2024-02-20T20:50:07.560Z,4.93
2024-02-20T20:53:09.442Z,5.90
2024-02-20T20:56:11.346Z,5.97
2024-02-20T20:59:13.199Z,5.43
2024-02-20T21:02:15.034Z,5.00
2024-02-20T21:05:17.101Z,5.67
2024-02-20T21:08:19.427Z,6.83
2024-02-20T21:11:21.611Z,6.30
2024-02-20T21:14:24.402Z,7.13
2024-02-20T21:17:26.586Z,5.83
2024-02-20T21:20:28.411Z,4.93
2024-02-20T21:23:30.224Z,5.50
2024-02-20T21:26:32.042Z,6.50
2024-02-20T21:29:34.504Z,7.40
2024-02-20T21:32:37.293Z,7.20
2024-02-20T21:35:39.404Z,7.13
2024-02-20T21:38:41.127Z,5.93
2024-02-20T21:41:42.968Z,6.53
2024-02-20T21:44:44.840Z,6.03
2024-02-20T21:47:47.445Z,5.80
2024-02-20T21:50:49.291Z,5.93
2024-02-20T21:53:51.890Z,5.83
2024-02-20T21:56:53.709Z,6.17
2024-02-20T21:59:55.571Z,5.87
2024-02-20T22:02:57.314Z,6.43
2024-02-20T22:06:00.074Z,6.40
2024-02-20T22:09:01.931Z,6.60
2024-02-20T22:12:04.328Z,6.53
2024-02-20T22:15:08.348Z,8.13
2024-02-20T22:18:10.333Z,7.20
2024-02-20T22:21:17.436Z,7.20
2024-02-20T22:24:19.342Z,6.73
2024-02-20T22:27:21.118Z,6.70
2024-02-20T22:30:23.119Z,7.70
2024-02-20T22:33:25.103Z,8.67
2024-02-20T22:36:27.417Z,8.23
2024-02-20T22:39:29.257Z,8.70
2024-02-20T22:42:32.590Z,7.10
2024-02-20T22:45:34.410Z,8.60
2024-02-20T22:48:36.410Z,8.30
2024-02-20T22:51:38.789Z,8.63
2024-02-20T22:54:40.512Z,8.37
2024-02-20T22:57:42.334Z,7.87
2024-02-20T23:00:44.218Z,9.63
2024-02-20T23:03:46.738Z,8.10
2024-02-20T23:06:48.531Z,8.97
2024-02-20T23:09:50.442Z,7.67
2024-02-20T23:12:52.200Z,7.30
2024-02-20T23:15:56.506Z,6.40
2024-02-20T23:18:58.943Z,6.13
2024-02-20T23:22:00.968Z,6.93
2024-02-20T23:25:02.786Z,6.50
2024-02-20T23:28:04.806Z,6.00
2024-02-20T23:31:06.585Z,5.87
2024-02-20T23:34:11.479Z,5.50
2024-02-20T23:37:13.510Z,5.60
2024-02-20T23:40:15.968Z,5.87
2024-02-20T23:43:17.915Z,5.90
2024-02-20T23:46:19.891Z,6.20
2024-02-20T23:49:21.882Z,5.67
2024-02-20T23:52:23.813Z,6.47
2024-02-20T23:55:25.674Z,6.57
2024-02-20T23:58:27.560Z,6.17
